Time;durP1;ratioP1;P1;durP2;ratioP2;P2;SDS_P1;SDS_P2;PMS_P1;PMS_P2;Temp;Humidity;BMP_temperature;BMP_pressure;BME280_temperature;BME280_humidity;BME280_pressure;Samples;Min_cycle;Max_cycle;Signal;HPM_P1;HPM_P2
2022/09/30 00:00:45;;;;;;;;;33.50;31.75;;;;;;;;5060300;28;45440;-72
2022/09/30 00:03:10;;;;;;;;;36.50;33.00;;;;;;;;5078920;28;45161;-73
2022/09/30 00:05:35;;;;;;;;;35.50;33.00;;;;;;;;5077209;28;46531;-74
2022/09/30 00:08:01;;;;;;;;;34.25;32.25;;;;;;;;5077615;28;45350;-72
2022/09/30 00:10:26;;;;;;;;;33.25;31.75;;;;;;;;5078583;28;45433;-73
2022/09/30 00:12:51;;;;;;;;;32.75;31.50;;;;;;;;5078280;27;45635;-73
2022/09/30 00:15:17;;;;;;;;;34.50;32.00;;;;;;;;5077661;28;45699;-73
2022/09/30 00:17:42;;;;;;;;;34.25;32.00;;;;;;;;5078096;28;45292;-72
2022/09/30 00:20:08;;;;;;;;;35.50;32.00;;;;;;;;5078516;28;45303;-73
2022/09/30 00:22:33;;;;;;;;;33.25;30.50;;;;;;;;5078372;28;45378;-73
2022/09/30 00:24:59;;;;;;;;;33.00;31.75;;;;;;;;5077756;28;46460;-75
2022/09/30 00:27:24;;;;;;;;;26.00;26.00;;;;;;;;5078220;28;45374;-73
2022/09/30 00:29:49;;;;;;;;;36.00;32.75;;;;;;;;5077975;28;45455;-71
2022/09/30 00:32:15;;;;;;;;;32.25;31.50;;;;;;;;5060000;28;45374;-75
2022/09/30 00:34:40;;;;;;;;;32.50;30.50;;;;;;;;5077999;28;46191;-74
2022/09/30 00:37:07;;;;;;;;;28.00;28.00;;;;;;;;5078125;28;45333;-72
2022/09/30 00:39:36;;;;;;;;;31.25;30.25;;;;;;;;5078269;28;45485;-74
2022/09/30 00:42:05;;;;;;;;;26.00;25.75;;;;;;;;5078984;28;45222;-74
2022/09/30 00:44:43;;;;;;;;;29.75;29.50;;;;;;;;5060233;28;47080;-73
2022/09/30 00:47:31;;;;;;;;;32.25;28.50;;;;;;;;5078388;28;45263;-72
2022/09/30 00:49:58;;;;;;;;;29.50;28.25;;;;;;;;5072311;27;45281;-73
2022/09/30 00:52:24;;;;;;;;;28.25;26.50;;;;;;;;5078131;28;45617;-72
2022/09/30 00:54:50;;;;;;;;;28.25;27.75;;;;;;;;5077430;28;45593;-72
2022/09/30 00:57:16;;;;;;;;;26.25;26.25;;;;;;;;5042500;28;45273;-73
2022/09/30 00:59:43;;;;;;;;;36.50;33.25;;;;;;;;5077520;28;45342;-74
2022/09/30 01:02:09;;;;;;;;;30.75;30.25;;;;;;;;5078587;28;45501;-74
2022/09/30 01:04:35;;;;;;;;;29.25;29.25;;;;;;;;5078138;28;45366;-72
2022/09/30 01:07:02;;;;;;;;;29.25;29.00;;;;;;;;5078007;28;45228;-74
2022/09/30 01:09:28;;;;;;;;;36.00;32.25;;;;;;;;5078414;27;45353;-72
2022/09/30 01:11:53;;;;;;;;;28.50;28.50;;;;;;;;5093489;27;45681;-72
2022/09/30 01:14:20;;;;;;;;;25.75;25.25;;;;;;;;5077416;28;45321;-73
2022/09/30 01:16:48;;;;;;;;;28.00;28.00;;;;;;;;5077595;28;45290;-74
2022/09/30 01:19:14;;;;;;;;;28.75;27.75;;;;;;;;5077144;28;45458;-72
2022/09/30 01:21:49;;;;;;;;;28.75;28.75;;;;;;;;5078314;28;45489;-73
2022/09/30 01:24:14;;;;;;;;;31.75;30.75;;;;;;;;5059384;28;46300;-73
2022/09/30 01:26:48;;;;;;;;;31.75;31.00;;;;;;;;5077895;28;45208;-73
2022/09/30 01:29:14;;;;;;;;;32.00;30.00;;;;;;;;5077706;28;45273;-73
2022/09/30 01:31:52;;;;;;;;;28.00;28.00;;;;;;;;5059628;28;45634;-74
2022/09/30 01:34:38;;;;;;;;;33.50;32.00;;;;;;;;5077084;28;46326;-73
2022/09/30 01:37:30;;;;;;;;;31.75;31.00;;;;;;;;5077246;28;45553;-73
2022/09/30 01:39:58;;;;;;;;;34.75;33.00;;;;;;;;5077297;28;45221;-72
2022/09/30 01:42:27;;;;;;;;;32.50;31.25;;;;;;;;5059550;28;45533;-73
2022/09/30 01:45:02;;;;;;;;;30.50;30.25;;;;;;;;5077824;28;46112;-73
2022/09/30 01:47:41;;;;;;;;;34.75;33.00;;;;;;;;5059391;28;45371;-73
2022/09/30 01:50:16;;;;;;;;;37.00;34.25;;;;;;;;5077567;28;45312;-73
2022/09/30 01:52:52;;;;;;;;;30.75;30.25;;;;;;;;5076852;28;45226;-73
2022/09/30 01:55:40;;;;;;;;;31.50;30.00;;;;;;;;5078586;28;45833;-74
2022/09/30 01:58:13;;;;;;;;;32.75;31.75;;;;;;;;5077247;27;45378;-74
2022/09/30 02:00:41;;;;;;;;;33.50;32.25;;;;;;;;5077537;28;45863;-72
2022/09/30 02:03:09;;;;;;;;;29.75;29.75;;;;;;;;5077352;28;45481;-73
2022/09/30 02:05:40;;;;;;;;;32.50;31.50;;;;;;;;5058610;28;46157;-73
2022/09/30 02:08:27;;;;;;;;;29.50;29.25;;;;;;;;5076755;28;45375;-74
2022/09/30 02:10:55;;;;;;;;;30.00;30.00;;;;;;;;5076911;28;45342;-73
2022/09/30 02:13:24;;;;;;;;;17.50;17.50;;;;;;;;5077273;28;45185;-73
2022/09/30 02:15:54;;;;;;;;;35.25;33.25;;;;;;;;5077107;28;45386;-75
2022/09/30 02:18:41;;;;;;;;;32.50;31.50;;;;;;;;5077027;28;45398;-73
2022/09/30 02:21:07;;;;;;;;;30.75;30.50;;;;;;;;5077193;28;45191;-72
2022/09/30 02:23:37;;;;;;;;;32.50;31.50;;;;;;;;5077426;28;45618;-73
2022/09/30 02:26:06;;;;;;;;;27.75;27.50;;;;;;;;5077302;28;45484;-72
2022/09/30 02:28:33;;;;;;;;;25.25;25.25;;;;;;;;5077564;28;45221;-73
2022/09/30 02:31:01;;;;;;;;;31.75;31.00;;;;;;;;5076579;28;45382;-72
2022/09/30 02:33:41;;;;;;;;;29.75;29.75;;;;;;;;5076668;27;45395;-72
2022/09/30 02:36:16;;;;;;;;;33.00;32.00;;;;;;;;5076832;28;45528;-72
2022/09/30 02:38:44;;;;;;;;;28.00;27.50;;;;;;;;5076116;28;45295;-72
2022/09/30 02:41:17;;;;;;;;;29.00;28.50;;;;;;;;5058288;28;45699;-75
2022/09/30 02:43:42;;;;;;;;;30.00;30.00;;;;;;;;5076381;28;45235;-72
2022/09/30 02:46:08;;;;;;;;;33.75;32.50;;;;;;;;5058325;28;47546;-73
2022/09/30 02:48:52;;;;;;;;;29.25;29.25;;;;;;;;5076211;28;45411;-73
2022/09/30 02:51:21;;;;;;;;;30.25;30.00;;;;;;;;5076059;28;45303;-71
2022/09/30 02:54:05;;;;;;;;;30.50;30.50;;;;;;;;5076615;28;45426;-72
2022/09/30 02:56:33;;;;;;;;;33.25;30.25;;;;;;;;5076489;28;45744;-73
2022/09/30 02:58:59;;;;;;;;;36.25;33.75;;;;;;;;5076412;28;45367;-74
2022/09/30 03:01:24;;;;;;;;;32.75;31.50;;;;;;;;5076980;28;45941;-74
2022/09/30 03:03:57;;;;;;;;;32.00;31.25;;;;;;;;5076270;27;45330;-73
2022/09/30 03:06:23;;;;;;;;;32.75;31.75;;;;;;;;5076228;28;45366;-73
2022/09/30 03:08:50;;;;;;;;;33.25;31.00;;;;;;;;5076477;28;45387;-74
2022/09/30 03:11:16;;;;;;;;;28.75;28.75;;;;;;;;5076246;28;45378;-74
2022/09/30 03:13:45;;;;;;;;;29.00;28.75;;;;;;;;5076511;28;45227;-72
2022/09/30 03:16:36;;;;;;;;;29.25;28.75;;;;;;;;5075430;28;46422;-74
2022/09/30 03:19:02;;;;;;;;;30.00;29.50;;;;;;;;5076025;28;45244;-70
2022/09/30 03:21:42;;;;;;;;;26.00;26.00;;;;;;;;5076336;28;45212;-72
2022/09/30 03:24:07;;;;;;;;;29.00;28.75;;;;;;;;5077947;28;45514;-71
2022/09/30 03:26:33;;;;;;;;;24.50;24.50;;;;;;;;5060787;28;47493;-71
2022/09/30 03:29:25;;;;;;;;;29.50;29.00;;;;;;;;5077690;28;45350;-74
2022/09/30 03:31:53;;;;;;;;;27.25;27.25;;;;;;;;5074455;27;45587;-73
2022/09/30 03:34:27;;;;;;;;;27.00;27.00;;;;;;;;5058972;28;45708;-73
2022/09/30 03:37:01;;;;;;;;;28.50;28.50;;;;;;;;5053989;28;46335;-73
2022/09/30 03:39:58;;;;;;;;;30.00;30.00;;;;;;;;5054349;28;45261;-72
2022/09/30 03:42:29;;;;;;;;;30.00;30.00;;;;;;;;5055469;28;45264;-72
2022/09/30 03:45:01;;;;;;;;;29.50;29.50;;;;;;;;5035785;28;45611;-74
2022/09/30 03:47:28;;;;;;;;;23.75;23.75;;;;;;;;5037032;28;46279;-73
2022/09/30 03:49:56;;;;;;;;;28.25;28.25;;;;;;;;5037177;28;45373;-72
2022/09/30 03:52:23;;;;;;;;;30.75;30.75;;;;;;;;5055169;28;45335;-73
2022/09/30 03:54:50;;;;;;;;;27.50;27.50;;;;;;;;5021091;28;45568;-73
2022/09/30 03:57:16;;;;;;;;;26.00;26.00;;;;;;;;5036934;28;48098;-72
2022/09/30 03:59:41;;;;;;;;;32.00;31.00;;;;;;;;5054382;28;45465;-73
2022/09/30 04:02:09;;;;;;;;;29.00;29.00;;;;;;;;5055147;28;45485;-72
2022/09/30 04:04:34;;;;;;;;;27.75;27.75;;;;;;;;5037101;28;45507;-72
2022/09/30 04:06:59;;;;;;;;;30.75;28.50;;;;;;;;5054663;28;46296;-72
2022/09/30 04:09:26;;;;;;;;;27.75;27.75;;;;;;;;5055055;28;45263;-73
2022/09/30 04:11:51;;;;;;;;;31.25;30.75;;;;;;;;5055656;28;45392;-74
2022/09/30 04:14:16;;;;;;;;;26.00;26.00;;;;;;;;5056077;28;45434;-72
2022/09/30 04:16:41;;;;;;;;;27.00;27.00;;;;;;;;5056815;28;46397;-72
2022/09/30 04:19:07;;;;;;;;;25.00;25.00;;;;;;;;5058424;28;45407;-74
2022/09/30 04:21:32;;;;;;;;;26.00;26.00;;;;;;;;5058629;28;45467;-72
2022/09/30 04:23:57;;;;;;;;;26.50;25.75;;;;;;;;5058587;28;45692;-72
2022/09/30 04:26:23;;;;;;;;;22.75;22.75;;;;;;;;5058080;28;45392;-72
2022/09/30 04:28:48;;;;;;;;;26.25;26.25;;;;;;;;5058393;28;45315;-72
2022/09/30 04:31:15;;;;;;;;;21.50;21.50;;;;;;;;5058466;28;45421;-72
2022/09/30 04:33:41;;;;;;;;;26.75;25.75;;;;;;;;5058520;28;45356;-72
2022/09/30 04:36:06;;;;;;;;;22.25;22.25;;;;;;;;5058225;28;45415;-73
2022/09/30 04:38:31;;;;;;;;;27.50;27.50;;;;;;;;5040046;28;45888;-72
2022/09/30 04:41:00;;;;;;;;;25.00;25.00;;;;;;;;5058480;28;45327;-73
2022/09/30 04:43:25;;;;;;;;;22.00;22.00;;;;;;;;5058280;28;45321;-74
2022/09/30 04:45:51;;;;;;;;;27.25;27.25;;;;;;;;5058116;28;45541;-74
2022/09/30 04:48:17;;;;;;;;;26.50;26.50;;;;;;;;5058142;28;45395;-73
2022/09/30 04:50:42;;;;;;;;;25.00;25.00;;;;;;;;5058417;28;45298;-73
2022/09/30 04:53:10;;;;;;;;;22.75;22.75;;;;;;;;5058092;28;45362;-71
2022/09/30 04:55:35;;;;;;;;;27.50;27.50;;;;;;;;5057018;28;46151;-73
2022/09/30 04:58:01;;;;;;;;;21.75;21.75;;;;;;;;5057373;28;45233;-73
2022/09/30 05:00:26;;;;;;;;;25.00;25.00;;;;;;;;5039593;28;45366;-73
2022/09/30 05:02:51;;;;;;;;;25.75;25.50;;;;;;;;5039831;28;45753;-72
2022/09/30 05:05:17;;;;;;;;;22.75;22.75;;;;;;;;5057196;28;46520;-72
2022/09/30 05:07:43;;;;;;;;;25.00;24.50;;;;;;;;5057364;28;45367;-73
2022/09/30 05:10:10;;;;;;;;;29.25;29.25;;;;;;;;5057743;28;45308;-73
2022/09/30 05:12:35;;;;;;;;;26.50;26.50;;;;;;;;5057534;28;45445;-72
2022/09/30 05:15:00;;;;;;;;;22.00;22.00;;;;;;;;5039216;28;47805;-74
2022/09/30 05:17:28;;;;;;;;;26.25;26.25;;;;;;;;5057466;28;45343;-72
2022/09/30 05:19:53;;;;;;;;;25.50;25.50;;;;;;;;5057588;28;45330;-75
2022/09/30 05:22:18;;;;;;;;;25.75;25.75;;;;;;;;5057465;28;45399;-72
2022/09/30 05:24:44;;;;;;;;;24.75;24.75;;;;;;;;5056988;28;45268;-73
2022/09/30 05:27:09;;;;;;;;;28.75;28.25;;;;;;;;5056245;28;45491;-72
2022/09/30 05:29:34;;;;;;;;;27.25;27.25;;;;;;;;5057101;28;45312;-74
2022/09/30 05:32:00;;;;;;;;;26.25;26.25;;;;;;;;5038964;28;45344;-72
2022/09/30 05:34:25;;;;;;;;;26.25;26.25;;;;;;;;5056736;28;46059;-73
2022/09/30 05:36:50;;;;;;;;;20.75;20.75;;;;;;;;5056888;28;45256;-72
2022/09/30 05:39:15;;;;;;;;;26.25;26.25;;;;;;;;5056718;28;45239;-74
2022/09/30 05:41:41;;;;;;;;;29.00;28.00;;;;;;;;5057407;28;45554;-73
2022/09/30 05:44:08;;;;;;;;;26.50;26.50;;;;;;;;5056301;28;46623;-72
2022/09/30 05:46:33;;;;;;;;;27.00;27.00;;;;;;;;5056524;28;45248;-73
2022/09/30 05:48:58;;;;;;;;;30.00;30.00;;;;;;;;5056498;28;45355;-72
2022/09/30 05:51:24;;;;;;;;;28.75;28.75;;;;;;;;5056620;28;45336;-74
2022/09/30 05:53:50;;;;;;;;;24.25;24.25;;;;;;;;5056222;28;46437;-73
2022/09/30 05:56:15;;;;;;;;;28.50;28.50;;;;;;;;5056176;28;45292;-72
2022/09/30 05:58:41;;;;;;;;;27.75;27.75;;;;;;;;5057056;28;45284;-73
2022/09/30 06:01:11;;;;;;;;;28.00;28.00;;;;;;;;5056522;28;45353;-73
2022/09/30 06:03:37;;;;;;;;;24.50;24.50;;;;;;;;5056013;28;46654;-74
2022/09/30 06:06:02;;;;;;;;;27.00;27.00;;;;;;;;5056074;28;45368;-73
2022/09/30 06:08:28;;;;;;;;;27.75;27.75;;;;;;;;5056172;28;45238;-73
2022/09/30 06:10:53;;;;;;;;;25.50;24.75;;;;;;;;5038274;28;45448;-73
2022/09/30 06:13:20;;;;;;;;;24.50;24.25;;;;;;;;5055963;28;46670;-74
2022/09/30 06:15:55;;;;;;;;;27.25;27.25;;;;;;;;5038255;28;45351;-74
2022/09/30 06:18:20;;;;;;;;;29.50;29.50;;;;;;;;5055497;28;45279;-74
2022/09/30 06:20:45;;;;;;;;;28.50;27.75;;;;;;;;5038236;28;45490;-73
2022/09/30 06:23:10;;;;;;;;;27.50;27.50;;;;;;;;5037668;28;47224;-75
2022/09/30 06:25:36;;;;;;;;;29.75;29.75;;;;;;;;5056533;28;45342;-73
2022/09/30 06:28:01;;;;;;;;;56.00;47.00;;;;;;;;5056647;28;45334;-74
2022/09/30 06:30:27;;;;;;;;;28.50;28.00;;;;;;;;5058891;28;45286;-73
2022/09/30 06:32:55;;;;;;;;;30.50;30.25;;;;;;;;5038375;28;47548;-74
2022/09/30 06:35:23;;;;;;;;;29.50;29.50;;;;;;;;5056436;28;45355;-74
2022/09/30 06:37:51;;;;;;;;;35.50;33.50;;;;;;;;5055942;28;45433;-74
2022/09/30 06:40:17;;;;;;;;;33.50;32.50;;;;;;;;5058105;28;45746;-73
2022/09/30 06:42:42;;;;;;;;;27.00;27.00;;;;;;;;5069199;28;46085;-72
2022/09/30 06:45:08;;;;;;;;;31.75;31.00;;;;;;;;5057216;28;45850;-73
2022/09/30 06:47:34;;;;;;;;;32.50;31.50;;;;;;;;5063191;28;45363;-73
2022/09/30 06:49:59;;;;;;;;;19.50;19.50;;;;;;;;5056014;28;45527;-74
2022/09/30 06:52:25;;;;;;;;;33.75;32.25;;;;;;;;5069393;28;46304;-74
2022/09/30 06:54:51;;;;;;;;;33.50;31.25;;;;;;;;5076498;28;45395;-75
2022/09/30 06:57:21;;;;;;;;;30.25;30.25;;;;;;;;5064271;27;45483;-75
2022/09/30 06:59:46;;;;;;;;;28.75;28.50;;;;;;;;5085089;27;45395;-75
2022/09/30 07:02:12;;;;;;;;;32.25;31.25;;;;;;;;5057656;28;47375;-75
2022/09/30 07:04:37;;;;;;;;;30.75;29.75;;;;;;;;5086996;27;45281;-74
2022/09/30 07:07:03;;;;;;;;;31.00;31.00;;;;;;;;5085392;27;45864;-74
2022/09/30 07:09:28;;;;;;;;;32.50;31.25;;;;;;;;5078075;27;45281;-74
2022/09/30 07:11:53;;;;;;;;;40.25;36.00;;;;;;;;5077906;27;46744;-75
2022/09/30 07:14:18;;;;;;;;;42.00;37.25;;;;;;;;5075564;28;45331;-73
2022/09/30 07:16:44;;;;;;;;;41.50;36.00;;;;;;;;5075499;28;45365;-79
2022/09/30 07:19:09;;;;;;;;;41.75;37.25;;;;;;;;5056705;28;45396;-73
2022/09/30 07:21:35;;;;;;;;;35.75;33.00;;;;;;;;5074961;28;46137;-74
2022/09/30 07:24:00;;;;;;;;;36.25;33.50;;;;;;;;5075907;27;45430;-76
2022/09/30 07:26:26;;;;;;;;;37.00;33.75;;;;;;;;5095570;27;45330;-74
2022/09/30 07:28:52;;;;;;;;;37.25;33.25;;;;;;;;5095379;27;45550;-72
2022/09/30 07:31:24;;;;;;;;;38.50;35.25;;;;;;;;5096684;27;45262;-73
2022/09/30 07:33:54;;;;;;;;;42.25;36.75;;;;;;;;5096792;27;45236;-72
2022/09/30 07:36:25;;;;;;;;;35.50;32.75;;;;;;;;5087102;27;45491;-72
2022/09/30 07:38:50;;;;;;;;;39.00;34.00;;;;;;;;5079464;28;45546;-74
2022/09/30 07:41:20;;;;;;;;;41.00;35.75;;;;;;;;5077061;28;46036;-75
2022/09/30 07:43:47;;;;;;;;;34.25;33.00;;;;;;;;5082056;28;45406;-74
2022/09/30 07:46:12;;;;;;;;;45.00;39.25;;;;;;;;5082659;28;45275;-76
2022/09/30 07:51:04;;;;;;;;;29.00;29.00;;;;;;;;5089882;28;45176;-75
2022/09/30 07:53:30;;;;;;;;;35.50;33.25;;;;;;;;5089917;28;45224;-74
2022/09/30 07:55:55;;;;;;;;;33.00;32.00;;;;;;;;5090437;28;45287;-74
2022/09/30 07:58:20;;;;;;;;;29.75;29.75;;;;;;;;5067431;28;45692;-77
2022/09/30 08:00:48;;;;;;;;;35.25;33.75;;;;;;;;5081003;28;45370;-75
2022/09/30 08:03:13;;;;;;;;;35.50;33.00;;;;;;;;5080859;28;45351;-75
2022/09/30 08:05:39;;;;;;;;;35.00;33.50;;;;;;;;5061810;27;45362;-80
2022/09/30 08:08:05;;;;;;;;;40.25;35.25;;;;;;;;5080866;27;45642;-78
2022/09/30 08:10:34;;;;;;;;;39.00;35.75;;;;;;;;5080730;28;45700;-78
2022/09/30 08:12:59;;;;;;;;;36.75;33.50;;;;;;;;5081550;28;45297;-77
2022/09/30 08:15:24;;;;;;;;;33.25;32.00;;;;;;;;5063488;28;45212;-76
2022/09/30 08:17:50;;;;;;;;;41.50;36.00;;;;;;;;5063340;28;45588;-79
2022/09/30 08:20:15;;;;;;;;;41.00;36.50;;;;;;;;5063554;28;46873;-77
2022/09/30 08:22:43;;;;;;;;;38.75;35.50;;;;;;;;5080324;27;45269;-76
2022/09/30 08:25:09;;;;;;;;;36.75;34.75;;;;;;;;5062382;28;45790;-76
2022/09/30 08:27:34;;;;;;;;;41.00;36.25;;;;;;;;5084100;28;45415;-76
2022/09/30 08:30:00;;;;;;;;;41.00;37.50;;;;;;;;5081489;28;45831;-78
2022/09/30 08:32:28;;;;;;;;;34.75;33.50;;;;;;;;5081776;28;45334;-77
2022/09/30 08:34:54;;;;;;;;;41.75;37.50;;;;;;;;5084446;28;45447;-76
2022/09/30 08:37:20;;;;;;;;;38.75;35.00;;;;;;;;5082979;28;45244;-74
2022/09/30 08:39:47;;;;;;;;;40.00;35.75;;;;;;;;5081575;28;45356;-77
2022/09/30 08:42:41;;;;;;;;;43.50;37.75;;;;;;;;5061471;28;45573;-77
2022/09/30 08:45:22;;;;;;;;;47.00;39.00;;;;;;;;5047178;28;45340;-73
2022/09/30 08:48:02;;;;;;;;;38.25;34.00;;;;;;;;5062749;28;45323;-78
2022/09/30 08:50:46;;;;;;;;;37.75;34.25;;;;;;;;5078970;28;45332;-74
2022/09/30 08:53:16;;;;;;;;;36.25;33.25;;;;;;;;5060316;28;45767;-76
2022/09/30 08:55:43;;;;;;;;;36.75;34.00;;;;;;;;5081747;27;45403;-74
2022/09/30 08:58:25;;;;;;;;;30.50;30.00;;;;;;;;5079421;28;45549;-76
2022/09/30 09:00:51;;;;;;;;;39.00;35.25;;;;;;;;5078620;28;45598;-76
2022/09/30 09:03:19;;;;;;;;;31.00;30.50;;;;;;;;5078957;28;45421;-76
2022/09/30 09:05:50;;;;;;;;;32.50;31.50;;;;;;;;5078035;27;45347;-77
2022/09/30 09:08:15;;;;;;;;;28.00;28.00;;;;;;;;5079561;27;45287;-78
2022/09/30 09:10:43;;;;;;;;;27.25;27.25;;;;;;;;5079749;28;46707;-76
2022/09/30 09:13:24;;;;;;;;;22.00;22.00;;;;;;;;5079287;28;45417;-74
2022/09/30 09:15:58;;;;;;;;;23.00;23.00;;;;;;;;5059984;28;45389;-77
2022/09/30 09:18:41;;;;;;;;;24.50;23.00;;;;;;;;5078146;28;45507;-77
2022/09/30 09:21:08;;;;;;;;;26.00;26.00;;;;;;;;5078076;28;45509;-77
2022/09/30 09:23:33;;;;;;;;;24.75;24.75;;;;;;;;5077809;28;45299;-74
2022/09/30 09:25:59;;;;;;;;;20.00;20.00;;;;;;;;5078427;28;45396;-76
2022/09/30 09:28:32;;;;;;;;;24.25;24.25;;;;;;;;5079599;27;45311;-77
2022/09/30 09:30:58;;;;;;;;;22.00;22.00;;;;;;;;5079520;28;46349;-75
2022/09/30 09:33:28;;;;;;;;;20.75;20.75;;;;;;;;5079014;28;45278;-77
2022/09/30 09:35:59;;;;;;;;;20.00;20.00;;;;;;;;5078075;28;45521;-76
2022/09/30 09:38:24;;;;;;;;;22.75;22.75;;;;;;;;5079191;28;45366;-76
2022/09/30 09:41:02;;;;;;;;;20.25;20.25;;;;;;;;5079704;28;46061;-78
2022/09/30 09:43:30;;;;;;;;;52.00;44.50;;;;;;;;5077371;28;45294;-78
2022/09/30 09:46:11;;;;;;;;;13.50;13.50;;;;;;;;5077572;28;45399;-75
2022/09/30 09:48:36;;;;;;;;;13.00;13.00;;;;;;;;5079388;27;45324;-75
2022/09/30 09:51:22;;;;;;;;;13.75;13.75;;;;;;;;5079020;28;46386;-76
2022/09/30 09:53:48;;;;;;;;;14.75;14.75;;;;;;;;5078476;27;45339;-77
2022/09/30 09:56:17;;;;;;;;;15.25;15.25;;;;;;;;5058806;28;45380;-77
2022/09/30 09:59:02;;;;;;;;;19.25;18.50;;;;;;;;5077309;28;45419;-78
2022/09/30 10:01:32;;;;;;;;;17.00;17.00;;;;;;;;5077369;28;46345;-74
2022/09/30 10:04:14;;;;;;;;;17.75;17.75;;;;;;;;5078098;28;45317;-76
2022/09/30 10:06:42;;;;;;;;;14.50;14.50;;;;;;;;5059629;28;45464;-76
2022/09/30 10:09:21;;;;;;;;;12.25;12.25;;;;;;;;5079761;28;45496;-76
2022/09/30 10:11:46;;;;;;;;;18.00;17.50;;;;;;;;5079061;28;46216;-78
2022/09/30 10:14:15;;;;;;;;;30.50;29.25;;;;;;;;5083374;28;45490;-77
2022/09/30 10:16:41;;;;;;;;;17.50;17.50;;;;;;;;5079813;28;45295;-76
2022/09/30 10:19:19;;;;;;;;;16.50;16.50;;;;;;;;5061702;28;45442;-77
2022/09/30 10:21:44;;;;;;;;;16.25;16.25;;;;;;;;5078877;28;45259;-75
2022/09/30 10:24:26;;;;;;;;;16.75;16.75;;;;;;;;5078977;28;45409;-76
2022/09/30 10:26:52;;;;;;;;;17.50;17.50;;;;;;;;5078116;28;45271;-74
2022/09/30 10:29:35;;;;;;;;;21.25;21.25;;;;;;;;5079747;28;45245;-75
2022/09/30 10:32:07;;;;;;;;;21.25;21.25;;;;;;;;5080405;28;45351;-76
2022/09/30 10:34:35;;;;;;;;;27.50;25.75;;;;;;;;5078805;28;45228;-75
2022/09/30 10:37:01;;;;;;;;;14.75;14.75;;;;;;;;5079443;28;45362;-77
2022/09/30 10:39:32;;;;;;;;;18.25;18.25;;;;;;;;5080319;28;45423;-77
2022/09/30 10:42:03;;;;;;;;;15.25;15.25;;;;;;;;5078733;28;46427;-75
2022/09/30 10:44:29;;;;;;;;;15.00;15.00;;;;;;;;5079222;28;45421;-77
2022/09/30 10:46:58;;;;;;;;;18.00;16.50;;;;;;;;5078177;28;45292;-76
2022/09/30 10:49:32;;;;;;;;;19.50;19.50;;;;;;;;5077518;28;45592;-74
2022/09/30 10:51:58;;;;;;;;;14.25;14.25;;;;;;;;5076885;28;45498;-73
2022/09/30 10:54:35;;;;;;;;;13.75;13.00;;;;;;;;5079051;27;45425;-75
2022/09/30 10:57:02;;;;;;;;;14.75;14.75;;;;;;;;5078912;28;45298;-76
2022/09/30 10:59:33;;;;;;;;;14.75;14.75;;;;;;;;5077420;28;45539;-77
2022/09/30 11:02:19;;;;;;;;;16.25;16.25;;;;;;;;5076964;28;45431;-76
2022/09/30 11:04:49;;;;;;;;;16.00;16.00;;;;;;;;5077919;27;45361;-73
2022/09/30 11:07:22;;;;;;;;;18.50;18.50;;;;;;;;5092435;27;45389;-76
2022/09/30 11:10:07;;;;;;;;;17.00;17.00;;;;;;;;5077656;28;45392;-73
2022/09/30 11:12:53;;;;;;;;;15.00;15.00;;;;;;;;5076047;27;45405;-75
2022/09/30 11:15:22;;;;;;;;;21.50;21.00;;;;;;;;5076586;28;45280;-74
2022/09/30 11:17:54;;;;;;;;;22.00;22.00;;;;;;;;5076619;28;45222;-75
2022/09/30 11:20:26;;;;;;;;;20.25;20.25;;;;;;;;5058305;28;45414;-75
2022/09/30 11:22:58;;;;;;;;;21.50;21.50;;;;;;;;5075509;28;45589;-74
2022/09/30 11:25:32;;;;;;;;;22.25;22.25;;;;;;;;5060775;28;45575;-75
2022/09/30 11:28:04;;;;;;;;;20.25;20.25;;;;;;;;5079913;28;45190;-73
2022/09/30 11:30:35;;;;;;;;;19.75;19.75;;;;;;;;5080271;28;45278;-75
2022/09/30 11:33:12;;;;;;;;;17.25;17.25;;;;;;;;5079632;28;45448;-75
2022/09/30 11:35:40;;;;;;;;;19.75;19.75;;;;;;;;5060777;28;45435;-77
2022/09/30 11:38:25;;;;;;;;;20.50;20.50;;;;;;;;5079244;27;45224;-73
2022/09/30 11:41:09;;;;;;;;;22.00;22.00;;;;;;;;5057137;28;45429;-77
2022/09/30 11:43:38;;;;;;;;;18.75;18.75;;;;;;;;5061065;28;47089;-76
2022/09/30 11:46:22;;;;;;;;;16.50;16.50;;;;;;;;5080791;28;45461;-77
2022/09/30 11:48:48;;;;;;;;;15.75;15.75;;;;;;;;5078779;28;45339;-75
2022/09/30 11:51:25;;;;;;;;;17.00;17.00;;;;;;;;5079661;28;45143;-76
2022/09/30 11:53:50;;;;;;;;;21.75;21.75;;;;;;;;5078712;28;46065;-76
2022/09/30 11:56:36;;;;;;;;;14.25;14.25;;;;;;;;5060426;28;45452;-74
2022/09/30 11:59:03;;;;;;;;;15.00;15.00;;;;;;;;5079415;28;45332;-73
2022/09/30 12:01:29;;;;;;;;;12.75;12.75;;;;;;;;5079269;28;45434;-77
2022/09/30 12:04:02;;;;;;;;;22.25;22.00;;;;;;;;5080028;28;46999;-74
2022/09/30 12:06:56;;;;;;;;;7.00;7.00;;;;;;;;5060817;28;45500;-74
2022/09/30 12:09:27;;;;;;;;;10.25;10.25;;;;;;;;5040106;28;45530;-75
2022/09/30 12:11:52;;;;;;;;;7.50;7.50;;;;;;;;5078535;28;45281;-74
2022/09/30 12:14:32;;;;;;;;;7.00;7.00;;;;;;;;5078420;28;45359;-76
2022/09/30 12:16:59;;;;;;;;;6.50;6.50;;;;;;;;5059809;27;45690;-75
2022/09/30 12:19:31;;;;;;;;;8.00;8.00;;;;;;;;5077571;28;45327;-75
2022/09/30 12:22:04;;;;;;;;;12.75;12.75;;;;;;;;5059683;28;45833;-72
2022/09/30 12:24:29;;;;;;;;;5.00;5.00;;;;;;;;5059019;28;47444;-75
2022/09/30 12:26:55;;;;;;;;;5.50;5.50;;;;;;;;5077883;28;45351;-73
2022/09/30 12:32:07;;;;;;;;;13.50;13.00;;;;;;;;5078006;28;45450;-75
2022/09/30 12:34:34;;;;;;;;;8.00;8.00;;;;;;;;5077820;28;46041;-75
2022/09/30 12:37:19;;;;;;;;;7.50;7.50;;;;;;;;5059160;28;45273;-74
2022/09/30 12:39:50;;;;;;;;;5.25;5.25;;;;;;;;5078746;28;45256;-72
2022/09/30 12:42:18;;;;;;;;;11.50;11.50;;;;;;;;5060848;28;45503;-74
2022/09/30 12:44:48;;;;;;;;;5.75;5.75;;;;;;;;5078117;28;45593;-75
2022/09/30 12:47:18;;;;;;;;;4.25;4.25;;;;;;;;5077699;28;45395;-75
2022/09/30 12:49:44;;;;;;;;;6.75;6.75;;;;;;;;5079096;28;45366;-76
2022/09/30 12:52:20;;;;;;;;;7.00;7.00;;;;;;;;5079663;28;45467;-74
2022/09/30 12:54:49;;;;;;;;;6.00;6.00;;;;;;;;5079755;28;46935;-75
2022/09/30 12:57:18;;;;;;;;;7.00;7.00;;;;;;;;5077752;28;45398;-77
2022/09/30 12:59:51;;;;;;;;;6.00;6.00;;;;;;;;5061221;28;45287;-76
2022/09/30 13:02:33;;;;;;;;;6.00;6.00;;;;;;;;5060479;28;45264;-74
2022/09/30 13:05:18;;;;;;;;;10.75;10.75;;;;;;;;5077300;28;46138;-75
2022/09/30 13:08:03;;;;;;;;;4.25;4.25;;;;;;;;5076437;28;45334;-75
2022/09/30 13:10:30;;;;;;;;;7.50;7.50;;;;;;;;5058687;28;45266;-75
2022/09/30 13:13:15;;;;;;;;;8.50;8.50;;;;;;;;5059114;28;45597;-75
2022/09/30 13:15:41;;;;;;;;;8.25;8.25;;;;;;;;5076332;28;45338;-74
2022/09/30 13:18:18;;;;;;;;;6.00;6.00;;;;;;;;5076781;28;45322;-73
2022/09/30 13:20:55;;;;;;;;;6.00;6.00;;;;;;;;5076511;28;45252;-75
2022/09/30 13:23:39;;;;;;;;;6.50;6.50;;;;;;;;5058893;28;45855;-74
2022/09/30 13:26:24;;;;;;;;;5.25;5.25;;;;;;;;5076649;28;45485;-75
2022/09/30 13:28:51;;;;;;;;;7.25;7.25;;;;;;;;5076651;27;45243;-76
2022/09/30 13:31:17;;;;;;;;;10.00;8.00;;;;;;;;5076703;28;45314;-73
2022/09/30 13:34:04;;;;;;;;;22.25;19.75;;;;;;;;5092354;27;45453;-76
2022/09/30 13:36:38;;;;;;;;;6.00;6.00;;;;;;;;5076720;28;45426;-73
2022/09/30 13:39:05;;;;;;;;;5.00;5.00;;;;;;;;5076285;28;45195;-74
2022/09/30 13:41:31;;;;;;;;;5.00;5.00;;;;;;;;5058195;28;45334;-76
2022/09/30 13:44:02;;;;;;;;;3.50;3.50;;;;;;;;5076790;28;45454;-74
2022/09/30 13:46:38;;;;;;;;;5.00;5.00;;;;;;;;5075838;28;45822;-73
2022/09/30 13:49:18;;;;;;;;;5.50;5.50;;;;;;;;5057739;28;45785;-74
2022/09/30 13:51:43;;;;;;;;;6.00;6.00;;;;;;;;5076234;28;45320;-74
2022/09/30 13:54:36;;;;;;;;;8.00;8.00;;;;;;;;5077255;28;45349;-74
2022/09/30 13:57:03;;;;;;;;;11.00;11.00;;;;;;;;5074993;27;45379;-75
2022/09/30 13:59:36;;;;;;;;;10.00;9.50;;;;;;;;5075598;28;45380;-74
2022/09/30 14:02:26;;;;;;;;;4.00;4.00;;;;;;;;5075827;28;45339;-74
2022/09/30 14:05:00;;;;;;;;;9.00;9.00;;;;;;;;5076113;27;45364;-74
2022/09/30 14:07:50;;;;;;;;;6.00;6.00;;;;;;;;5075940;28;46216;-73
2022/09/30 14:10:34;;;;;;;;;5.00;5.00;;;;;;;;5076199;27;45437;-76
2022/09/30 14:13:08;;;;;;;;;4.25;4.25;;;;;;;;5057647;28;45452;-76
2022/09/30 14:15:33;;;;;;;;;4.75;4.75;;;;;;;;5075784;28;45808;-75
2022/09/30 14:18:04;;;;;;;;;5.25;5.25;;;;;;;;5075332;28;45672;-74
2022/09/30 14:20:36;;;;;;;;;4.00;4.00;;;;;;;;5075376;28;45251;-73
2022/09/30 14:23:01;;;;;;;;;6.00;6.00;;;;;;;;5075257;28;45402;-74
2022/09/30 14:25:30;;;;;;;;;7.75;6.75;;;;;;;;5057201;28;45759;-79
2022/09/30 14:28:04;;;;;;;;;5.75;5.00;;;;;;;;5074891;28;45575;-72
2022/09/30 14:30:33;;;;;;;;;3.50;3.50;;;;;;;;5075502;28;45413;-75
2022/09/30 14:33:07;;;;;;;;;7.50;7.50;;;;;;;;5075382;28;45209;-74
2022/09/30 14:35:34;;;;;;;;;8.00;8.00;;;;;;;;5075567;28;45347;-72
2022/09/30 14:38:04;;;;;;;;;5.75;5.75;;;;;;;;5075344;28;46288;-75
2022/09/30 14:40:31;;;;;;;;;4.50;4.50;;;;;;;;5075321;28;45216;-75
2022/09/30 14:43:01;;;;;;;;;3.25;3.25;;;;;;;;5076150;28;45243;-73